createdAt,value
2019-02-21T00:26:35.138Z,94.70
2019-02-21T00:30:41.758Z,94.70
2019-02-21T00:35:09.574Z,95.00
2019-02-21T01:39:05.108Z,97.00
2019-02-21T01:43:12.063Z,96.80
2019-02-21T01:47:39.115Z,97.70
2019-02-21T01:51:45.486Z,96.80
2019-02-21T02:00:02.611Z,95.70
2019-02-21T02:04:09.863Z,97.50
2019-02-21T02:08:38.481Z,97.80
2019-02-21T03:41:33.934Z,96.70
2019-02-21T04:18:41.847Z,95.90
2019-02-21T04:51:39.045Z,97.00
2019-02-21T04:55:48.649Z,97.60
2019-02-21T06:01:54.873Z,99.40
2019-02-21T06:06:22.564Z,99.50
2019-02-21T06:15:30.603Z,99.90
2019-02-21T06:39:50.568Z,99.90
2019-02-21T06:43:58.893Z,99.90
2019-02-21T06:48:07.316Z,99.90
2019-02-21T06:52:15.609Z,99.90
2019-02-21T07:06:31.437Z,99.90
2019-02-21T07:15:02.500Z,99.90
2019-02-21T07:19:11.005Z,99.90
2019-02-21T07:23:26.208Z,99.90
2019-02-21T07:37:43.405Z,99.90
2019-02-21T07:56:05.263Z,99.90
2019-02-21T08:00:12.332Z,99.90
2019-02-21T08:42:40.396Z,99.90
2019-02-21T08:46:47.380Z,99.90
2019-02-21T08:51:14.868Z,99.90
2019-02-21T08:55:24.521Z,99.90
2019-02-21T08:59:33.648Z,99.90
2019-02-21T09:03:41.055Z,99.90
2019-02-21T09:07:47.817Z,99.90
2019-02-21T09:11:55.712Z,99.90
2019-02-21T09:16:03.044Z,99.90
2019-02-21T09:20:13.990Z,99.90
2019-02-21T09:24:37.402Z,99.90
2019-02-21T09:28:29.666Z,99.90
2019-02-21T09:32:37.407Z,99.90
2019-02-21T09:36:45.049Z,99.90
2019-02-21T09:40:58.277Z,99.90
2019-02-21T09:45:11.176Z,99.90
2019-02-21T09:49:22.221Z,99.90
2019-02-21T09:53:28.610Z,99.90
2019-02-21T09:57:37.955Z,99.90
2019-02-21T10:01:44.415Z,99.90
2019-02-21T11:05:58.824Z,99.90
2019-02-21T11:10:08.691Z,99.90
2019-02-21T11:14:18.522Z,99.90
2019-02-21T11:18:26.633Z,99.90
2019-02-21T11:47:13.646Z,99.90
2019-02-21T11:51:24.808Z,99.90
2019-02-21T12:10:38.342Z,99.90
2019-02-21T12:24:29.727Z,99.90
2019-02-21T12:28:36.242Z,99.90
2019-02-21T12:32:46.865Z,99.90
2019-02-21T12:36:54.685Z,99.90
2019-02-21T12:41:02.768Z,99.90
2019-02-21T12:45:30.055Z,99.90
2019-02-21T12:49:41.651Z,99.90
2019-02-21T12:54:13.165Z,99.90
2019-02-21T12:58:18.040Z,99.90
2019-02-21T13:02:24.743Z,99.90
2019-02-21T13:06:33.272Z,99.90
2019-02-21T13:10:43.663Z,99.90
2019-02-21T13:14:50.363Z,99.90
2019-02-21T13:18:56.996Z,99.90
2019-02-21T13:23:05.416Z,99.90
2019-02-21T13:37:12.964Z,99.90
2019-02-21T13:41:23.493Z,99.90
2019-02-21T13:45:31.098Z,99.90
2019-02-21T13:49:44.283Z,99.90
2019-02-21T13:53:52.324Z,99.90
2019-02-21T13:57:58.427Z,99.90
2019-02-21T14:21:03.103Z,99.90
2019-02-21T14:25:18.484Z,99.90
2019-02-21T14:29:25.090Z,99.90
2019-02-21T14:33:32.439Z,99.90
2019-02-21T14:38:00.243Z,99.90
2019-02-21T14:51:24.149Z,99.90
2019-02-21T14:55:30.964Z,99.90
2019-02-21T14:59:40.584Z,99.90
2019-02-21T15:03:50.867Z,99.90
2019-02-21T15:41:30.746Z,99.90
2019-02-21T15:54:56.671Z,99.90
2019-02-21T15:59:03.190Z,99.90
2019-02-21T16:03:15.259Z,99.90
2019-02-21T16:07:21.967Z,99.90
2019-02-21T16:11:31.821Z,99.90
2019-02-21T16:15:39.226Z,99.90
2019-02-21T16:23:52.481Z,99.90
2019-02-21T16:28:02.370Z,99.90
2019-02-21T16:32:11.273Z,99.90
2019-02-21T16:36:22.325Z,99.90
2019-02-21T16:40:31.095Z,99.90
2019-02-21T16:44:44.346Z,99.90
2019-02-21T16:48:52.642Z,99.90
2019-02-21T17:07:13.286Z,99.90
2019-02-21T17:16:16.108Z,99.90
2019-02-21T17:24:36.669Z,99.90
2019-02-21T17:28:43.272Z,99.90
2019-02-21T17:32:50.211Z,99.90
2019-02-21T17:36:56.897Z,99.90
2019-02-21T17:45:11.884Z,99.90
2019-02-21T17:49:18.620Z,99.90
2019-02-21T17:57:54.738Z,99.90
2019-02-21T18:02:01.299Z,99.90
2019-02-21T18:06:11.215Z,99.90
2019-02-21T18:10:19.158Z,99.90
2019-02-21T18:14:27.912Z,99.90
2019-02-21T18:18:34.882Z,99.90
2019-02-21T18:22:45.561Z,99.90
2019-02-21T18:26:53.185Z,99.90
2019-02-21T18:31:00.465Z,99.90
2019-02-21T18:50:02.696Z,99.90
2019-02-21T18:54:11.317Z,99.90
2019-02-21T18:58:21.541Z,99.90
2019-02-21T19:02:29.612Z,99.90
2019-02-21T19:06:38.791Z,99.90
2019-02-21T19:10:50.144Z,99.90
2019-02-21T19:14:58.626Z,99.90
2019-02-21T19:19:07.723Z,99.90
2019-02-21T19:23:16.539Z,99.90
2019-02-21T19:32:25.673Z,99.90
2019-02-21T19:36:37.319Z,99.90
2019-02-21T19:40:46.451Z,99.90
2019-02-21T19:45:01.219Z,99.90
2019-02-21T20:32:50.270Z,99.90
2019-02-21T20:37:01.920Z,99.90
2019-02-21T20:51:01.677Z,99.90
2019-02-21T21:04:40.045Z,99.90
2019-02-21T21:56:57.280Z,99.90
2019-02-21T22:01:22.220Z,99.90
2019-02-21T23:17:29.830Z,99.90
2019-02-21T23:36:47.807Z,99.90
2019-02-21T23:40:56.782Z,99.90
2019-02-21T23:45:07.864Z,99.90
2019-02-21T23:49:14.751Z,99.80
